CDT,Max TemperatureF,Mean TemperatureF,Min TemperatureF,Max Dew PointF,MeanDew PointF,Min DewpointF,Max Humidity, Mean Humidity, Min Humidity, Max Sea Level PressureIn, Mean Sea Level PressureIn, Min Sea Level PressureIn, Max VisibilityMiles, Mean VisibilityMiles, Min VisibilityMiles, Max Wind SpeedMPH, Mean Wind SpeedMPH, Max Gust SpeedMPH,PrecipitationIn, CloudCover, Events, WindDirDegrees
2011-9-1,89,76,62,75,70,63,100,83,55,29.90,29.78,29.69,10,7,0,12,3,20,0.00,0,Fog-Rain,148
2011-9-2,75,72,68,72,69,64,100,88,69,29.93,29.86,29.71,10,8,4,16,5,18,0.07,5,Rain,304
2011-9-3,77,66,55,66,60,48,100,83,59,29.98,29.89,29.85,10,9,5,22,4,29,0.00,3,Rain-Thunderstorm,289
2011-9-4,66,57,48,52,49,43,100,74,45,30.18,30.08,29.99,10,10,7,16,9,24,0.00,3,,314
2011-9-5,68,54,39,52,46,39,100,79,46,30.24,30.19,30.13,10,9,0,7,0,,0.00,2,Fog,179
2011-9-6,69,54,39,54,47,39,100,75,46,30.23,30.20,30.16,10,10,7,9,2,,0.00,1,,178
2011-9-7,73,57,41,55,49,41,100,77,46,30.32,30.27,30.23,10,9,0,6,1,,0.00,0,Fog,47
2011-9-8,82,65,48,61,54,48,100,72,39,30.30,30.25,30.14,10,10,5,12,3,18,0.00,1,,355
2011-9-9,84,70,55,61,58,55,100,69,37,30.13,30.05,29.98,10,10,10,10,4,16,0.00,0,,347
2011-9-10,84,68,53,66,59,54,100,78,40,30.08,30.04,30.00,10,8,0,6,0,,0.00,1,Fog,334
2011-9-11,84,70,57,63,59,54,100,72,37,30.02,29.98,29.93,10,10,7,12,3,16,0.00,1,,258
2011-9-12,86,70,55,61,58,55,100,67,35,29.94,29.81,29.68,10,10,7,16,4,26,0.00,0,,226
2011-9-13,66,57,48,48,44,39,87,63,40,30.06,30.01,29.92,10,10,10,13,8,21,0.00,1,,301
2011-9-14,57,50,42,45,32,28,76,54,36,30.34,30.23,30.05,10,10,10,18,11,28,0.00,1,,328
2011-9-15,55,42,28,37,31,27,100,66,33,30.45,30.40,30.32,10,9,5,8,2,,0.00,0,,3
2011-9-16,57,49,41,39,37,34,87,64,44,30.32,30.28,30.22,10,10,4,12,3,21,0.00,5,,166
2011-9-17,64,55,46,46,42,41,87,66,42,30.24,30.18,30.11,10,10,10,13,5,25,0.00,8,,137
2011-9-18,57,54,51,55,53,48,100,94,77,30.10,30.00,29.94,10,7,1,8,4,,0.29,8,Rain,142
2011-9-19,71,58,46,55,48,41,100,79,35,30.04,29.99,29.95,10,7,0,10,2,16,0.00,2,Fog,278
2011-9-20,69,56,44,54,48,43,100,72,43,29.94,29.80,29.71,10,10,10,20,5,28,0.09,3,Rain,206
2011-9-21,57,52,48,52,48,46,100,88,72,30.04,29.85,29.70,10,8,2,22,12,30,0.04,8,Rain,269
2011-9-22,55,50,44,46,41,37,100,77,54,30.16,30.12,30.06,10,10,4,10,6,,0.01,7,Rain,325
2011-9-23,57,48,39,45,42,39,100,80,58,30.18,30.14,30.07,10,10,5,6,1,,0.00,6,,35
2011-9-24,59,46,33,48,41,34,100,88,55,30.10,30.06,30.02,10,6,0,10,2,17,0.00,4,Fog,77
2011-9-25,64,50,35,52,44,36,100,82,49,30.05,29.99,29.91,10,8,1,13,2,21,0.00,5,Rain,43
2011-9-26,66,58,51,54,51,48,94,80,60,29.92,29.85,29.78,10,10,10,16,8,26,0.00,7,Rain,2
2011-9-27,62,58,55,57,54,48,100,88,72,29.93,29.88,29.81,10,10,5,12,6,16,0.12,6,Rain,331
2011-9-28,77,64,51,57,54,52,100,75,41,29.88,29.83,29.77,10,8,2,8,1,,0.00,3,,307
2011-9-29,62,56,50,52,45,37,100,62,42,30.04,29.83,29.73,10,10,10,30,12,48,0.00,2,Rain,304
2011-9-30,60,53,46,45,40,30,93,63,31,30.22,30.17,30.09,10,10,10,16,12,22,0.00,0,,333